sensor_id;sensor_type;location;lat;lon;timestamp;temperature;humidity
78788;DHT22;68131;52.508;5.502;2023-04-03T00:01:39;5.20;63.70
78788;DHT22;68131;52.508;5.502;2023-04-03T00:04:08;5.20;63.50
78788;DHT22;68131;52.508;5.502;2023-04-03T00:06:37;5.30;63.50
78788;DHT22;68131;52.508;5.502;2023-04-03T00:09:09;5.20;63.50
78788;DHT22;68131;52.508;5.502;2023-04-03T00:11:38;5.20;63.50
78788;DHT22;68131;52.508;5.502;2023-04-03T00:14:07;5.20;63.50
78788;DHT22;68131;52.508;5.502;2023-04-03T00:16:36;5.20;63.40
78788;DHT22;68131;52.508;5.502;2023-04-03T00:19:05;5.20;63.50
78788;DHT22;68131;52.508;5.502;2023-04-03T00:21:34;5.10;63.50
78788;DHT22;68131;52.508;5.502;2023-04-03T00:24:04;5.10;63.60
78788;DHT22;68131;52.508;5.502;2023-04-03T00:26:36;5.10;63.60
78788;DHT22;68131;52.508;5.502;2023-04-03T00:29:05;5.10;63.70
78788;DHT22;68131;52.508;5.502;2023-04-03T00:31:34;5.10;63.60
78788;DHT22;68131;52.508;5.502;2023-04-03T00:34:03;5.10;63.60
78788;DHT22;68131;52.508;5.502;2023-04-03T00:36:32;5.10;63.50
78788;DHT22;68131;52.508;5.502;2023-04-03T00:39:01;5.10;63.60
78788;DHT22;68131;52.508;5.502;2023-04-03T00:41:30;5.00;63.70
78788;DHT22;68131;52.508;5.502;2023-04-03T00:47:09;5.00;63.80
78788;DHT22;68131;52.508;5.502;2023-04-03T00:49:40;4.90;63.80
78788;DHT22;68131;52.508;5.502;2023-04-03T00:52:12;4.90;63.90
78788;DHT22;68131;52.508;5.502;2023-04-03T00:54:44;4.90;63.90
78788;DHT22;68131;52.508;5.502;2023-04-03T00:57:15;4.90;63.90
78788;DHT22;68131;52.508;5.502;2023-04-03T00:59:46;4.90;64.00
78788;DHT22;68131;52.508;5.502;2023-04-03T01:02:19;4.80;64.10
78788;DHT22;68131;52.508;5.502;2023-04-03T01:04:49;4.80;64.10
78788;DHT22;68131;52.508;5.502;2023-04-03T01:07:21;4.80;64.20
78788;DHT22;68131;52.508;5.502;2023-04-03T01:09:53;4.70;64.30
78788;DHT22;68131;52.508;5.502;2023-04-03T01:12:27;4.70;64.30
78788;DHT22;68131;52.508;5.502;2023-04-03T01:14:58;4.70;64.30
78788;DHT22;68131;52.508;5.502;2023-04-03T01:17:32;4.70;64.40
78788;DHT22;68131;52.508;5.502;2023-04-03T01:23:22;4.60;64.40
78788;DHT22;68131;52.508;5.502;2023-04-03T01:25:54;4.60;64.40
78788;DHT22;68131;52.508;5.502;2023-04-03T01:28:25;4.60;64.50
78788;DHT22;68131;52.508;5.502;2023-04-03T01:31:00;4.50;64.60
78788;DHT22;68131;52.508;5.502;2023-04-03T01:33:38;4.50;64.70
78788;DHT22;68131;52.508;5.502;2023-04-03T01:36:08;4.40;64.80
78788;DHT22;68131;52.508;5.502;2023-04-03T01:38:37;4.40;64.90
78788;DHT22;68131;52.508;5.502;2023-04-03T01:41:06;4.40;65.00
78788;DHT22;68131;52.508;5.502;2023-04-03T01:43:36;4.40;65.00
78788;DHT22;68131;52.508;5.502;2023-04-03T01:46:05;4.30;65.10
78788;DHT22;68131;52.508;5.502;2023-04-03T01:48:37;4.30;65.20
78788;DHT22;68131;52.508;5.502;2023-04-03T01:51:06;4.20;65.30
78788;DHT22;68131;52.508;5.502;2023-04-03T01:53:35;4.20;65.40
78788;DHT22;68131;52.508;5.502;2023-04-03T01:56:05;4.20;65.40
78788;DHT22;68131;52.508;5.502;2023-04-03T01:58:35;4.20;65.50
78788;DHT22;68131;52.508;5.502;2023-04-03T02:01:04;4.10;65.60
78788;DHT22;68131;52.508;5.502;2023-04-03T02:03:33;4.10;65.70
78788;DHT22;68131;52.508;5.502;2023-04-03T02:06:05;4.00;65.80
78788;DHT22;68131;52.508;5.502;2023-04-03T02:08:35;4.00;65.90
78788;DHT22;68131;52.508;5.502;2023-04-03T02:11:06;4.00;66.00
78788;DHT22;68131;52.508;5.502;2023-04-03T02:13:35;3.90;66.20
78788;DHT22;68131;52.508;5.502;2023-04-03T02:16:09;3.90;66.20
78788;DHT22;68131;52.508;5.502;2023-04-03T02:18:38;3.90;66.30
78788;DHT22;68131;52.508;5.502;2023-04-03T02:21:10;3.80;66.40
78788;DHT22;68131;52.508;5.502;2023-04-03T02:23:39;3.80;66.60
78788;DHT22;68131;52.508;5.502;2023-04-03T02:26:10;3.70;66.70
78788;DHT22;68131;52.508;5.502;2023-04-03T02:28:40;3.70;66.90
78788;DHT22;68131;52.508;5.502;2023-04-03T02:31:10;3.60;66.90
78788;DHT22;68131;52.508;5.502;2023-04-03T02:33:41;3.60;67.00
78788;DHT22;68131;52.508;5.502;2023-04-03T02:36:15;3.60;67.10
78788;DHT22;68131;52.508;5.502;2023-04-03T02:38:50;3.60;67.10
78788;DHT22;68131;52.508;5.502;2023-04-03T02:41:19;3.60;67.20
78788;DHT22;68131;52.508;5.502;2023-04-03T02:43:51;3.60;67.30
78788;DHT22;68131;52.508;5.502;2023-04-03T02:46:20;3.60;67.30
78788;DHT22;68131;52.508;5.502;2023-04-03T02:48:50;3.60;67.40
78788;DHT22;68131;52.508;5.502;2023-04-03T02:51:22;3.50;67.50
78788;DHT22;68131;52.508;5.502;2023-04-03T02:53:53;3.50;67.60
78788;DHT22;68131;52.508;5.502;2023-04-03T02:56:26;3.50;67.60
78788;DHT22;68131;52.508;5.502;2023-04-03T02:58:55;3.50;67.70
78788;DHT22;68131;52.508;5.502;2023-04-03T03:01:25;3.50;67.70
78788;DHT22;68131;52.508;5.502;2023-04-03T03:03:57;3.50;67.80
78788;DHT22;68131;52.508;5.502;2023-04-03T03:06:29;3.50;67.80
78788;DHT22;68131;52.508;5.502;2023-04-03T03:08:58;3.50;68.00
78788;DHT22;68131;52.508;5.502;2023-04-03T03:11:27;3.40;67.90
78788;DHT22;68131;52.508;5.502;2023-04-03T03:13:56;3.40;68.00
78788;DHT22;68131;52.508;5.502;2023-04-03T03:16:26;3.40;68.10
78788;DHT22;68131;52.508;5.502;2023-04-03T03:18:56;3.40;68.20
78788;DHT22;68131;52.508;5.502;2023-04-03T03:21:29;3.30;68.20
78788;DHT22;68131;52.508;5.502;2023-04-03T03:23:58;3.30;68.20
78788;DHT22;68131;52.508;5.502;2023-04-03T03:26:27;3.30;68.40
78788;DHT22;68131;52.508;5.502;2023-04-03T03:28:56;3.20;68.50
78788;DHT22;68131;52.508;5.502;2023-04-03T03:31:26;3.20;68.50
78788;DHT22;68131;52.508;5.502;2023-04-03T03:33:57;3.20;68.70
78788;DHT22;68131;52.508;5.502;2023-04-03T03:36:28;3.20;68.80
78788;DHT22;68131;52.508;5.502;2023-04-03T03:38:57;3.20;68.80
78788;DHT22;68131;52.508;5.502;2023-04-03T03:41:27;3.20;68.90
78788;DHT22;68131;52.508;5.502;2023-04-03T03:43:56;3.10;69.00
78788;DHT22;68131;52.508;5.502;2023-04-03T03:46:27;3.10;69.00
78788;DHT22;68131;52.508;5.502;2023-04-03T03:48:56;3.00;69.10
78788;DHT22;68131;52.508;5.502;2023-04-03T03:51:26;3.00;69.30
78788;DHT22;68131;52.508;5.502;2023-04-03T03:53:58;3.00;69.30
78788;DHT22;68131;52.508;5.502;2023-04-03T03:56:27;2.90;69.50
78788;DHT22;68131;52.508;5.502;2023-04-03T03:58:56;2.90;69.50
78788;DHT22;68131;52.508;5.502;2023-04-03T04:01:25;2.90;69.60
78788;DHT22;68131;52.508;5.502;2023-04-03T04:03:55;2.90;69.60
78788;DHT22;68131;52.508;5.502;2023-04-03T04:06:28;2.90;69.60
78788;DHT22;68131;52.508;5.502;2023-04-03T04:09:04;2.90;69.50
78788;DHT22;68131;52.508;5.502;2023-04-03T04:11:34;2.90;69.70
78788;DHT22;68131;52.508;5.502;2023-04-03T04:14:03;2.90;69.70
78788;DHT22;68131;52.508;5.502;2023-04-03T04:16:32;2.80;69.70
78788;DHT22;68131;52.508;5.502;2023-04-03T04:19:07;2.80;69.80
78788;DHT22;68131;52.508;5.502;2023-04-03T04:21:37;2.80;70.00
78788;DHT22;68131;52.508;5.502;2023-04-03T04:24:11;2.80;69.90
78788;DHT22;68131;52.508;5.502;2023-04-03T04:26:40;2.80;69.90
78788;DHT22;68131;52.508;5.502;2023-04-03T04:29:12;2.80;70.00
78788;DHT22;68131;52.508;5.502;2023-04-03T04:31:43;2.80;70.10
78788;DHT22;68131;52.508;5.502;2023-04-03T04:34:12;2.80;70.10
78788;DHT22;68131;52.508;5.502;2023-04-03T04:36:42;2.80;70.10
78788;DHT22;68131;52.508;5.502;2023-04-03T04:39:14;2.70;70.20
78788;DHT22;68131;52.508;5.502;2023-04-03T04:41:43;2.70;70.20
78788;DHT22;68131;52.508;5.502;2023-04-03T04:44:13;2.70;70.30
78788;DHT22;68131;52.508;5.502;2023-04-03T04:46:42;2.70;70.30
78788;DHT22;68131;52.508;5.502;2023-04-03T04:49:12;2.70;70.30
78788;DHT22;68131;52.508;5.502;2023-04-03T04:51:41;2.70;70.40
78788;DHT22;68131;52.508;5.502;2023-04-03T04:54:10;2.70;70.40
78788;DHT22;68131;52.508;5.502;2023-04-03T04:56:42;2.70;70.40
78788;DHT22;68131;52.508;5.502;2023-04-03T04:59:12;2.70;70.40
78788;DHT22;68131;52.508;5.502;2023-04-03T05:01:41;2.70;70.30
78788;DHT22;68131;52.508;5.502;2023-04-03T05:04:15;2.70;70.40
78788;DHT22;68131;52.508;5.502;2023-04-03T05:06:47;2.70;70.40
78788;DHT22;68131;52.508;5.502;2023-04-03T05:09:21;2.60;70.40
78788;DHT22;68131;52.508;5.502;2023-04-03T05:11:54;2.60;70.60
78788;DHT22;68131;52.508;5.502;2023-04-03T05:14:27;2.50;70.80
78788;DHT22;68131;52.508;5.502;2023-04-03T05:17:00;2.50;70.90
78788;DHT22;68131;52.508;5.502;2023-04-03T05:19:33;2.50;70.90
78788;DHT22;68131;52.508;5.502;2023-04-03T05:22:03;2.50;70.80
78788;DHT22;68131;52.508;5.502;2023-04-03T05:24:32;2.50;70.80
78788;DHT22;68131;52.508;5.502;2023-04-03T05:27:05;2.50;70.80
78788;DHT22;68131;52.508;5.502;2023-04-03T05:29:38;2.50;71.00
78788;DHT22;68131;52.508;5.502;2023-04-03T05:32:10;2.80;71.10
78788;DHT22;68131;52.508;5.502;2023-04-03T05:34:40;3.00;70.40
78788;DHT22;68131;52.508;5.502;2023-04-03T05:37:09;3.10;69.80
78788;DHT22;68131;52.508;5.502;2023-04-03T05:39:38;3.10;69.60
78788;DHT22;68131;52.508;5.502;2023-04-03T05:42:11;3.20;69.50
78788;DHT22;68131;52.508;5.502;2023-04-03T05:44:42;3.30;69.40
78788;DHT22;68131;52.508;5.502;2023-04-03T05:47:13;3.70;69.10
78788;DHT22;68131;52.508;5.502;2023-04-03T05:49:42;4.30;68.50
78788;DHT22;68131;52.508;5.502;2023-04-03T05:52:20;5.40;66.90
78788;DHT22;68131;52.508;5.502;2023-04-03T05:54:50;6.40;64.00
78788;DHT22;68131;52.508;5.502;2023-04-03T05:57:27;7.10;62.30
78788;DHT22;68131;52.508;5.502;2023-04-03T05:59:56;7.60;60.60
78788;DHT22;68131;52.508;5.502;2023-04-03T06:02:25;8.10;59.50
78788;DHT22;68131;52.508;5.502;2023-04-03T06:04:55;8.30;58.40
78788;DHT22;68131;52.508;5.502;2023-04-03T06:07:25;8.40;58.10
78788;DHT22;68131;52.508;5.502;2023-04-03T06:09:56;8.50;58.00
78788;DHT22;68131;52.508;5.502;2023-04-03T06:12:29;8.60;57.30
78788;DHT22;68131;52.508;5.502;2023-04-03T06:14:58;8.40;57.40
78788;DHT22;68131;52.508;5.502;2023-04-03T06:17:28;8.10;57.60
78788;DHT22;68131;52.508;5.502;2023-04-03T06:19:57;7.70;58.70
78788;DHT22;68131;52.508;5.502;2023-04-03T06:22:26;7.40;58.60
78788;DHT22;68131;52.508;5.502;2023-04-03T06:24:56;7.00;59.80
78788;DHT22;68131;52.508;5.502;2023-04-03T06:27:28;6.90;60.30
78788;DHT22;68131;52.508;5.502;2023-04-03T06:29:57;6.80;60.10
78788;DHT22;68131;52.508;5.502;2023-04-03T06:32:27;6.60;60.70
78788;DHT22;68131;52.508;5.502;2023-04-03T06:34:56;6.50;61.20
78788;DHT22;68131;52.508;5.502;2023-04-03T06:37:26;6.40;61.30
78788;DHT22;68131;52.508;5.502;2023-04-03T06:39:56;6.40;61.10
78788;DHT22;68131;52.508;5.502;2023-04-03T06:42:29;6.20;61.40
78788;DHT22;68131;52.508;5.502;2023-04-03T06:45:07;6.10;61.50
78788;DHT22;68131;52.508;5.502;2023-04-03T06:47:37;6.00;62.00
78788;DHT22;68131;52.508;5.502;2023-04-03T06:50:07;6.00;61.90
78788;DHT22;68131;52.508;5.502;2023-04-03T06:52:37;5.90;62.20
78788;DHT22;68131;52.508;5.502;2023-04-03T06:55:07;5.80;62.80
78788;DHT22;68131;52.508;5.502;2023-04-03T06:57:39;6.10;62.00
78788;DHT22;68131;52.508;5.502;2023-04-03T07:00:11;6.10;61.40
78788;DHT22;68131;52.508;5.502;2023-04-03T07:02:40;6.20;61.40
78788;DHT22;68131;52.508;5.502;2023-04-03T07:05:09;6.20;61.30
78788;DHT22;68131;52.508;5.502;2023-04-03T07:07:39;6.40;61.10
78788;DHT22;68131;52.508;5.502;2023-04-03T07:10:08;6.50;61.10
78788;DHT22;68131;52.508;5.502;2023-04-03T07:12:41;6.60;60.40
78788;DHT22;68131;52.508;5.502;2023-04-03T07:15:10;6.40;60.20
78788;DHT22;68131;52.508;5.502;2023-04-03T07:17:40;6.40;60.00
78788;DHT22;68131;52.508;5.502;2023-04-03T07:20:10;6.50;60.10
78788;DHT22;68131;52.508;5.502;2023-04-03T07:22:41;6.60;59.50
78788;DHT22;68131;52.508;5.502;2023-04-03T07:25:10;6.50;59.60
78788;DHT22;68131;52.508;5.502;2023-04-03T07:27:42;6.50;59.80
78788;DHT22;68131;52.508;5.502;2023-04-03T07:30:12;6.60;59.40
78788;DHT22;68131;52.508;5.502;2023-04-03T07:32:42;6.70;59.00
78788;DHT22;68131;52.508;5.502;2023-04-03T07:35:11;6.60;59.30
78788;DHT22;68131;52.508;5.502;2023-04-03T07:37:40;6.70;59.10
78788;DHT22;68131;52.508;5.502;2023-04-03T07:40:10;6.80;59.00
78788;DHT22;68131;52.508;5.502;2023-04-03T07:42:42;6.80;59.00
78788;DHT22;68131;52.508;5.502;2023-04-03T07:45:11;7.00;59.30
78788;DHT22;68131;52.508;5.502;2023-04-03T07:47:41;7.20;58.20
78788;DHT22;68131;52.508;5.502;2023-04-03T07:50:10;7.00;58.10
78788;DHT22;68131;52.508;5.502;2023-04-03T07:52:39;6.90;58.50
78788;DHT22;68131;52.508;5.502;2023-04-03T07:55:09;6.90;58.60
78788;DHT22;68131;52.508;5.502;2023-04-03T07:57:38;6.90;59.00
78788;DHT22;68131;52.508;5.502;2023-04-03T08:00:11;6.90;59.00
78788;DHT22;68131;52.508;5.502;2023-04-03T08:02:41;7.10;58.00
78788;DHT22;68131;52.508;5.502;2023-04-03T08:05:10;7.10;57.70
78788;DHT22;68131;52.508;5.502;2023-04-03T08:07:40;7.30;58.00
78788;DHT22;68131;52.508;5.502;2023-04-03T08:10:09;7.40;58.00
78788;DHT22;68131;52.508;5.502;2023-04-03T08:12:38;7.40;57.70
78788;DHT22;68131;52.508;5.502;2023-04-03T08:15:10;7.50;57.00
78788;DHT22;68131;52.508;5.502;2023-04-03T08:17:39;7.60;56.30
78788;DHT22;68131;52.508;5.502;2023-04-03T08:20:10;7.70;56.30
78788;DHT22;68131;52.508;5.502;2023-04-03T08:22:39;7.90;55.80
78788;DHT22;68131;52.508;5.502;2023-04-03T08:25:09;7.90;56.40
78788;DHT22;68131;52.508;5.502;2023-04-03T08:27:38;8.10;54.90
78788;DHT22;68131;52.508;5.502;2023-04-03T08:30:11;8.10;55.00
78788;DHT22;68131;52.508;5.502;2023-04-03T08:32:40;8.00;54.10
78788;DHT22;68131;52.508;5.502;2023-04-03T08:35:11;8.00;54.40
78788;DHT22;68131;52.508;5.502;2023-04-03T08:37:40;8.10;54.20
78788;DHT22;68131;52.508;5.502;2023-04-03T08:40:14;8.00;53.90
78788;DHT22;68131;52.508;5.502;2023-04-03T08:42:51;7.90;53.30
78788;DHT22;68131;52.508;5.502;2023-04-03T08:45:30;7.80;53.90
78788;DHT22;68131;52.508;5.502;2023-04-03T08:48:05;7.80;53.50
78788;DHT22;68131;52.508;5.502;2023-04-03T08:50:38;7.90;53.30
78788;DHT22;68131;52.508;5.502;2023-04-03T08:53:14;8.00;52.90
78788;DHT22;68131;52.508;5.502;2023-04-03T08:55:46;7.90;52.60
78788;DHT22;68131;52.508;5.502;2023-04-03T08:58:19;7.80;52.60
78788;DHT22;68131;52.508;5.502;2023-04-03T09:00:54;7.90;52.20
78788;DHT22;68131;52.508;5.502;2023-04-03T09:03:24;8.00;51.80
78788;DHT22;68131;52.508;5.502;2023-04-03T09:05:55;8.10;51.10
78788;DHT22;68131;52.508;5.502;2023-04-03T09:08:28;8.20;50.90
78788;DHT22;68131;52.508;5.502;2023-04-03T09:11:09;8.30;50.80
78788;DHT22;68131;52.508;5.502;2023-04-03T09:13:46;8.40;49.90
78788;DHT22;68131;52.508;5.502;2023-04-03T09:16:28;8.50;50.50
78788;DHT22;68131;52.508;5.502;2023-04-03T09:19:10;8.70;49.70
78788;DHT22;68131;52.508;5.502;2023-04-03T09:21:41;8.80;50.10
78788;DHT22;68131;52.508;5.502;2023-04-03T09:24:12;8.90;49.90
78788;DHT22;68131;52.508;5.502;2023-04-03T09:26:44;9.00;49.40
78788;DHT22;68131;52.508;5.502;2023-04-03T09:29:19;9.00;49.30
78788;DHT22;68131;52.508;5.502;2023-04-03T09:31:56;9.10;49.00
78788;DHT22;68131;52.508;5.502;2023-04-03T09:34:30;9.20;48.70
78788;DHT22;68131;52.508;5.502;2023-04-03T09:37:01;9.20;48.70
78788;DHT22;68131;52.508;5.502;2023-04-03T09:39:49;9.30;48.20
78788;DHT22;68131;52.508;5.502;2023-04-03T09:42:21;9.20;47.60
78788;DHT22;68131;52.508;5.502;2023-04-03T09:44:54;9.20;48.10
78788;DHT22;68131;52.508;5.502;2023-04-03T09:47:27;9.20;47.80
78788;DHT22;68131;52.508;5.502;2023-04-03T09:50:20;9.30;48.10
78788;DHT22;68131;52.508;5.502;2023-04-03T09:52:51;9.60;46.00
78788;DHT22;68131;52.508;5.502;2023-04-03T09:55:22;9.60;45.60
78788;DHT22;68131;52.508;5.502;2023-04-03T09:57:53;9.70;46.20
78788;DHT22;68131;52.508;5.502;2023-04-03T10:00:25;9.80;44.40
78788;DHT22;68131;52.508;5.502;2023-04-03T10:02:59;9.70;43.60
78788;DHT22;68131;52.508;5.502;2023-04-03T10:05:32;9.60;44.10
78788;DHT22;68131;52.508;5.502;2023-04-03T10:08:20;9.50;44.90
78788;DHT22;68131;52.508;5.502;2023-04-03T10:11:07;9.60;45.70
78788;DHT22;68131;52.508;5.502;2023-04-03T10:13:37;9.70;44.50
78788;DHT22;68131;52.508;5.502;2023-04-03T10:16:21;9.70;44.20
78788;DHT22;68131;52.508;5.502;2023-04-03T10:19:19;9.60;43.10
78788;DHT22;68131;52.508;5.502;2023-04-03T10:21:57;9.60;42.80
78788;DHT22;68131;52.508;5.502;2023-04-03T10:24:33;9.60;42.20
78788;DHT22;68131;52.508;5.502;2023-04-03T10:27:06;9.60;42.40
78788;DHT22;68131;52.508;5.502;2023-04-03T10:29:42;9.60;42.30
78788;DHT22;68131;52.508;5.502;2023-04-03T10:32:29;9.50;42.60
78788;DHT22;68131;52.508;5.502;2023-04-03T10:35:15;9.50;42.80
78788;DHT22;68131;52.508;5.502;2023-04-03T10:37:55;9.50;43.40
78788;DHT22;68131;52.508;5.502;2023-04-03T10:40:33;9.70;43.20
78788;DHT22;68131;52.508;5.502;2023-04-03T10:43:08;9.70;43.20
78788;DHT22;68131;52.508;5.502;2023-04-03T10:45:50;9.80;43.70
78788;DHT22;68131;52.508;5.502;2023-04-03T10:48:32;9.90;43.70
78788;DHT22;68131;52.508;5.502;2023-04-03T10:51:16;10.00;43.60
78788;DHT22;68131;52.508;5.502;2023-04-03T10:53:54;9.90;43.50
78788;DHT22;68131;52.508;5.502;2023-04-03T10:56:31;10.00;43.80
78788;DHT22;68131;52.508;5.502;2023-04-03T10:59:11;10.00;43.80
78788;DHT22;68131;52.508;5.502;2023-04-03T11:01:44;10.10;44.20
78788;DHT22;68131;52.508;5.502;2023-04-03T11:04:14;10.20;44.10
78788;DHT22;68131;52.508;5.502;2023-04-03T11:06:50;10.20;43.70
78788;DHT22;68131;52.508;5.502;2023-04-03T11:09:25;10.20;43.60
78788;DHT22;68131;52.508;5.502;2023-04-03T11:12:00;10.10;43.30
78788;DHT22;68131;52.508;5.502;2023-04-03T11:14:34;9.90;43.70
78788;DHT22;68131;52.508;5.502;2023-04-03T11:17:11;9.80;44.10
78788;DHT22;68131;52.508;5.502;2023-04-03T11:19:47;9.90;44.60
78788;DHT22;68131;52.508;5.502;2023-04-03T11:22:24;10.00;44.30
78788;DHT22;68131;52.508;5.502;2023-04-03T11:24:59;9.90;44.50
78788;DHT22;68131;52.508;5.502;2023-04-03T11:27:37;9.80;44.10
78788;DHT22;68131;52.508;5.502;2023-04-03T11:30:14;9.70;44.20
78788;DHT22;68131;52.508;5.502;2023-04-03T11:33:01;9.70;44.90
78788;DHT22;68131;52.508;5.502;2023-04-03T11:35:33;9.70;43.50
78788;DHT22;68131;52.508;5.502;2023-04-03T11:38:05;9.60;43.60
78788;DHT22;68131;52.508;5.502;2023-04-03T11:40:37;9.60;43.60
78788;DHT22;68131;52.508;5.502;2023-04-03T11:43:16;9.60;43.90
78788;DHT22;68131;52.508;5.502;2023-04-03T11:45:57;9.60;44.30
78788;DHT22;68131;52.508;5.502;2023-04-03T11:51:38;9.70;43.90
78788;DHT22;68131;52.508;5.502;2023-04-03T11:54:47;9.70;44.10
78788;DHT22;68131;52.508;5.502;2023-04-03T11:57:43;9.70;44.00
78788;DHT22;68131;52.508;5.502;2023-04-03T12:06:42;9.80;44.30
78788;DHT22;68131;52.508;5.502;2023-04-03T12:08:49;9.90;43.60
78788;DHT22;68131;52.508;5.502;2023-04-03T12:11:28;9.80;43.70
78788;DHT22;68131;52.508;5.502;2023-04-03T12:14:12;9.80;44.10
78788;DHT22;68131;52.508;5.502;2023-04-03T12:16:45;9.80;44.20
78788;DHT22;68131;52.508;5.502;2023-04-03T12:19:30;9.80;44.80
78788;DHT22;68131;52.508;5.502;2023-04-03T12:22:17;9.90;45.20
78788;DHT22;68131;52.508;5.502;2023-04-03T12:24:48;9.90;45.00
78788;DHT22;68131;52.508;5.502;2023-04-03T12:27:30;10.00;45.30
78788;DHT22;68131;52.508;5.502;2023-04-03T12:30:11;10.10;44.50
78788;DHT22;68131;52.508;5.502;2023-04-03T12:35:34;10.10;44.60
78788;DHT22;68131;52.508;5.502;2023-04-03T12:38:26;10.00;44.40
78788;DHT22;68131;52.508;5.502;2023-04-03T12:41:16;10.00;44.90
78788;DHT22;68131;52.508;5.502;2023-04-03T12:44:01;10.00;44.30
78788;DHT22;68131;52.508;5.502;2023-04-03T12:46:37;10.00;44.20
78788;DHT22;68131;52.508;5.502;2023-04-03T12:49:20;10.00;44.60
78788;DHT22;68131;52.508;5.502;2023-04-03T12:51:51;10.00;44.70
78788;DHT22;68131;52.508;5.502;2023-04-03T12:54:26;10.10;44.60
78788;DHT22;68131;52.508;5.502;2023-04-03T12:57:09;10.10;44.00
78788;DHT22;68131;52.508;5.502;2023-04-03T12:59:41;10.10;43.60
78788;DHT22;68131;52.508;5.502;2023-04-03T13:02:21;10.00;44.20
78788;DHT22;68131;52.508;5.502;2023-04-03T13:04:52;10.00;44.10
78788;DHT22;68131;52.508;5.502;2023-04-03T13:07:27;10.10;44.20
78788;DHT22;68131;52.508;5.502;2023-04-03T13:10:02;10.10;44.40
78788;DHT22;68131;52.508;5.502;2023-04-03T13:12:32;10.10;44.60
78788;DHT22;68131;52.508;5.502;2023-04-03T13:15:14;10.10;44.90
78788;DHT22;68131;52.508;5.502;2023-04-03T13:17:45;10.10;45.00
78788;DHT22;68131;52.508;5.502;2023-04-03T13:20:18;10.10;44.50
78788;DHT22;68131;52.508;5.502;2023-04-03T13:22:52;10.10;45.20
78788;DHT22;68131;52.508;5.502;2023-04-03T13:25:24;10.10;44.40
78788;DHT22;68131;52.508;5.502;2023-04-03T13:27:55;10.10;44.30
78788;DHT22;68131;52.508;5.502;2023-04-03T13:30:30;10.10;44.60
78788;DHT22;68131;52.508;5.502;2023-04-03T13:33:01;10.10;44.70
78788;DHT22;68131;52.508;5.502;2023-04-03T13:35:34;10.10;44.70
78788;DHT22;68131;52.508;5.502;2023-04-03T13:38:07;10.10;44.90
78788;DHT22;68131;52.508;5.502;2023-04-03T13:40:51;10.20;45.20
78788;DHT22;68131;52.508;5.502;2023-04-03T13:43:21;10.20;44.90
78788;DHT22;68131;52.508;5.502;2023-04-03T13:46:03;10.20;45.10
78788;DHT22;68131;52.508;5.502;2023-04-03T13:48:38;10.20;44.80
78788;DHT22;68131;52.508;5.502;2023-04-03T13:51:18;10.20;44.90
78788;DHT22;68131;52.508;5.502;2023-04-03T13:53:48;10.20;45.30
78788;DHT22;68131;52.508;5.502;2023-04-03T13:56:23;10.30;44.60
78788;DHT22;68131;52.508;5.502;2023-04-03T13:58:59;10.30;44.70
78788;DHT22;68131;52.508;5.502;2023-04-03T14:01:43;10.30;44.70
78788;DHT22;68131;52.508;5.502;2023-04-03T14:04:17;10.30;45.30
78788;DHT22;68131;52.508;5.502;2023-04-03T14:06:48;10.40;45.30
78788;DHT22;68131;52.508;5.502;2023-04-03T14:09:19;10.40;45.20
78788;DHT22;68131;52.508;5.502;2023-04-03T14:11:50;10.30;45.10
78788;DHT22;68131;52.508;5.502;2023-04-03T14:14:22;10.30;44.50
78788;DHT22;68131;52.508;5.502;2023-04-03T14:16:57;10.40;44.30
78788;DHT22;68131;52.508;5.502;2023-04-03T14:19:30;10.40;44.80
78788;DHT22;68131;52.508;5.502;2023-04-03T14:22:00;10.40;44.50
78788;DHT22;68131;52.508;5.502;2023-04-03T14:24:30;10.30;45.10
78788;DHT22;68131;52.508;5.502;2023-04-03T14:26:59;10.20;45.30
78788;DHT22;68131;52.508;5.502;2023-04-03T14:29:28;10.30;45.30
78788;DHT22;68131;52.508;5.502;2023-04-03T14:32:00;10.30;45.60
78788;DHT22;68131;52.508;5.502;2023-04-03T14:34:29;10.30;45.50
78788;DHT22;68131;52.508;5.502;2023-04-03T14:36:58;10.20;45.20
78788;DHT22;68131;52.508;5.502;2023-04-03T14:39:27;10.20;45.40
78788;DHT22;68131;52.508;5.502;2023-04-03T14:41:56;10.20;45.40
78788;DHT22;68131;52.508;5.502;2023-04-03T14:44:25;10.10;45.60
78788;DHT22;68131;52.508;5.502;2023-04-03T14:46:54;10.10;45.80
78788;DHT22;68131;52.508;5.502;2023-04-03T14:49:27;10.20;45.80
78788;DHT22;68131;52.508;5.502;2023-04-03T14:51:57;10.20;45.70
78788;DHT22;68131;52.508;5.502;2023-04-03T14:54:27;10.20;45.60
78788;DHT22;68131;52.508;5.502;2023-04-03T14:56:59;10.20;45.60
78788;DHT22;68131;52.508;5.502;2023-04-03T14:59:29;10.20;45.50
78788;DHT22;68131;52.508;5.502;2023-04-03T15:01:59;10.10;45.40
78788;DHT22;68131;52.508;5.502;2023-04-03T15:04:30;10.10;45.60
78788;DHT22;68131;52.508;5.502;2023-04-03T15:06:59;10.10;45.90
78788;DHT22;68131;52.508;5.502;2023-04-03T15:09:29;10.10;45.30
78788;DHT22;68131;52.508;5.502;2023-04-03T15:11:58;10.10;45.30
78788;DHT22;68131;52.508;5.502;2023-04-03T15:14:27;10.10;45.70
78788;DHT22;68131;52.508;5.502;2023-04-03T15:16:56;10.20;46.30
78788;DHT22;68131;52.508;5.502;2023-04-03T15:19:25;10.20;45.90
78788;DHT22;68131;52.508;5.502;2023-04-03T15:21:57;10.10;45.40
78788;DHT22;68131;52.508;5.502;2023-04-03T15:24:26;10.10;45.10
78788;DHT22;68131;52.508;5.502;2023-04-03T15:26:55;10.00;45.00
78788;DHT22;68131;52.508;5.502;2023-04-03T15:29:24;10.00;45.20
78788;DHT22;68131;52.508;5.502;2023-04-03T15:31:53;10.00;45.50
78788;DHT22;68131;52.508;5.502;2023-04-03T15:34:22;10.00;45.20
78788;DHT22;68131;52.508;5.502;2023-04-03T15:36:52;10.00;45.60
78788;DHT22;68131;52.508;5.502;2023-04-03T15:39:24;10.00;45.40
78788;DHT22;68131;52.508;5.502;2023-04-03T15:41:55;10.00;45.20
78788;DHT22;68131;52.508;5.502;2023-04-03T15:44:33;9.90;45.90
78788;DHT22;68131;52.508;5.502;2023-04-03T15:47:02;10.00;46.60
78788;DHT22;68131;52.508;5.502;2023-04-03T15:49:32;10.00;47.00
78788;DHT22;68131;52.508;5.502;2023-04-03T15:52:02;10.00;46.80
78788;DHT22;68131;52.508;5.502;2023-04-03T15:54:34;10.00;46.80
78788;DHT22;68131;52.508;5.502;2023-04-03T15:57:03;10.00;46.80
78788;DHT22;68131;52.508;5.502;2023-04-03T15:59:32;10.10;46.50
78788;DHT22;68131;52.508;5.502;2023-04-03T16:02:03;10.00;46.90
78788;DHT22;68131;52.508;5.502;2023-04-03T16:04:33;10.00;46.70
78788;DHT22;68131;52.508;5.502;2023-04-03T16:07:03;10.00;46.50
78788;DHT22;68131;52.508;5.502;2023-04-03T16:09:35;9.90;47.00
78788;DHT22;68131;52.508;5.502;2023-04-03T16:12:04;10.00;46.70
78788;DHT22;68131;52.508;5.502;2023-04-03T16:14:34;9.90;46.40
78788;DHT22;68131;52.508;5.502;2023-04-03T16:17:03;9.90;46.40
78788;DHT22;68131;52.508;5.502;2023-04-03T16:19:32;9.80;46.40
78788;DHT22;68131;52.508;5.502;2023-04-03T16:22:01;9.80;46.40
78788;DHT22;68131;52.508;5.502;2023-04-03T16:24:30;9.80;47.00
78788;DHT22;68131;52.508;5.502;2023-04-03T16:27:04;9.80;47.10
78788;DHT22;68131;52.508;5.502;2023-04-03T16:29:33;9.80;47.00
78788;DHT22;68131;52.508;5.502;2023-04-03T16:32:02;9.80;47.00
78788;DHT22;68131;52.508;5.502;2023-04-03T16:34:32;9.70;47.10